sensor_id;sensor_type;location;lat;lon;timestamp;temperature;humidity
7476;DHT22;3779;49.216;8.650;2023-02-01T00:01:44;17.80;39.80
7476;DHT22;3779;49.216;8.650;2023-02-01T00:04:33;17.60;38.20
7476;DHT22;3779;49.216;8.650;2023-02-01T00:07:28;17.60;40.90
7476;DHT22;3779;49.216;8.650;2023-02-01T00:10:28;17.00;39.80
7476;DHT22;3779;49.216;8.650;2023-02-01T00:13:15;17.60;38.70
7476;DHT22;3779;49.216;8.650;2023-02-01T00:16:05;17.60;40.30
7476;DHT22;3779;49.216;8.650;2023-02-01T00:19:07;17.60;39.90
7476;DHT22;3779;49.216;8.650;2023-02-01T00:21:54;17.60;39.90
7476;DHT22;3779;49.216;8.650;2023-02-01T00:24:40;17.50;39.20
7476;DHT22;3779;49.216;8.650;2023-02-01T00:27:26;17.50;39.10
7476;DHT22;3779;49.216;8.650;2023-02-01T00:30:12;17.60;38.00
7476;DHT22;3779;49.216;8.650;2023-02-01T00:32:58;17.60;38.70
7476;DHT22;3779;49.216;8.650;2023-02-01T00:35:47;17.60;40.20
7476;DHT22;3779;49.216;8.650;2023-02-01T00:38:37;17.60;38.90
7476;DHT22;3779;49.216;8.650;2023-02-01T00:41:23;17.60;40.50
7476;DHT22;3779;49.216;8.650;2023-02-01T00:44:11;17.60;39.00
7476;DHT22;3779;49.216;8.650;2023-02-01T00:47:01;17.40;41.20
7476;DHT22;3779;49.216;8.650;2023-02-01T00:49:48;17.70;40.80
7476;DHT22;3779;49.216;8.650;2023-02-01T00:52:34;17.60;38.70
7476;DHT22;3779;49.216;8.650;2023-02-01T00:55:20;17.60;39.50
7476;DHT22;3779;49.216;8.650;2023-02-01T00:58:07;17.70;40.80
7476;DHT22;3779;49.216;8.650;2023-02-01T01:01:28;17.70;41.00
7476;DHT22;3779;49.216;8.650;2023-02-01T01:04:15;17.70;40.50
7476;DHT22;3779;49.216;8.650;2023-02-01T01:07:01;17.80;39.10
7476;DHT22;3779;49.216;8.650;2023-02-01T01:09:47;17.80;38.80
7476;DHT22;3779;49.216;8.650;2023-02-01T01:12:33;17.80;38.00
7476;DHT22;3779;49.216;8.650;2023-02-01T01:15:21;17.80;39.00
7476;DHT22;3779;49.216;8.650;2023-02-01T01:18:08;17.90;39.10
7476;DHT22;3779;49.216;8.650;2023-02-01T01:20:54;17.90;40.70
7476;DHT22;3779;49.216;8.650;2023-02-01T01:23:47;17.80;38.20
7476;DHT22;3779;49.216;8.650;2023-02-01T01:26:40;17.80;40.50
7476;DHT22;3779;49.216;8.650;2023-02-01T01:29:26;17.70;38.50
7476;DHT22;3779;49.216;8.650;2023-02-01T01:32:13;17.70;38.40
7476;DHT22;3779;49.216;8.650;2023-02-01T01:35:03;17.70;38.80
7476;DHT22;3779;49.216;8.650;2023-02-01T01:37:49;17.80;39.90
7476;DHT22;3779;49.216;8.650;2023-02-01T01:40:35;17.70;39.40
7476;DHT22;3779;49.216;8.650;2023-02-01T01:43:21;17.70;40.00
7476;DHT22;3779;49.216;8.650;2023-02-01T01:46:16;17.70;40.60
7476;DHT22;3779;49.216;8.650;2023-02-01T01:49:23;17.70;40.50
7476;DHT22;3779;49.216;8.650;2023-02-01T01:52:11;17.70;40.00
7476;DHT22;3779;49.216;8.650;2023-02-01T01:54:58;17.60;40.10
7476;DHT22;3779;49.216;8.650;2023-02-01T01:57:50;17.60;40.30
7476;DHT22;3779;49.216;8.650;2023-02-01T02:00:39;17.60;40.30
7476;DHT22;3779;49.216;8.650;2023-02-01T02:03:37;17.70;39.30
7476;DHT22;3779;49.216;8.650;2023-02-01T02:06:35;17.70;40.70
7476;DHT22;3779;49.216;8.650;2023-02-01T02:09:23;17.60;40.20
7476;DHT22;3779;49.216;8.650;2023-02-01T02:12:09;17.60;40.00
7476;DHT22;3779;49.216;8.650;2023-02-01T02:14:56;17.70;40.60
7476;DHT22;3779;49.216;8.650;2023-02-01T02:31:22;17.60;41.60
7476;DHT22;3779;49.216;8.650;2023-02-01T02:40:55;17.60;40.20
7476;DHT22;3779;49.216;8.650;2023-02-01T02:43:46;17.60;40.10
7476;DHT22;3779;49.216;8.650;2023-02-01T02:46:54;17.60;39.80
7476;DHT22;3779;49.216;8.650;2023-02-01T02:53:27;18.10;40.30
7476;DHT22;3779;49.216;8.650;2023-02-01T02:56:34;18.10;40.00
7476;DHT22;3779;49.216;8.650;2023-02-01T02:59:40;17.70;40.60
7476;DHT22;3779;49.216;8.650;2023-02-01T03:02:51;17.70;39.90
7476;DHT22;3779;49.216;8.650;2023-02-01T03:05:56;17.70;40.00
7476;DHT22;3779;49.216;8.650;2023-02-01T03:08:43;17.70;38.80
7476;DHT22;3779;49.216;8.650;2023-02-01T03:11:32;17.70;39.80
7476;DHT22;3779;49.216;8.650;2023-02-01T03:14:42;17.70;40.70
7476;DHT22;3779;49.216;8.650;2023-02-01T03:17:34;17.80;41.50
7476;DHT22;3779;49.216;8.650;2023-02-01T03:20:22;17.80;41.60
7476;DHT22;3779;49.216;8.650;2023-02-01T03:23:12;17.70;40.50
7476;DHT22;3779;49.216;8.650;2023-02-01T03:26:09;17.70;40.60
7476;DHT22;3779;49.216;8.650;2023-02-01T03:32:17;17.70;41.20
7476;DHT22;3779;49.216;8.650;2023-02-01T03:35:14;17.60;41.10
7476;DHT22;3779;49.216;8.650;2023-02-01T03:38:38;17.70;39.60
7476;DHT22;3779;49.216;8.650;2023-02-01T03:41:40;17.70;42.80
7476;DHT22;3779;49.216;8.650;2023-02-01T03:47:35;17.70;41.50
7476;DHT22;3779;49.216;8.650;2023-02-01T03:50:25;17.70;40.70
7476;DHT22;3779;49.216;8.650;2023-02-01T03:53:16;17.70;41.90
7476;DHT22;3779;49.216;8.650;2023-02-01T03:56:08;17.80;40.30
7476;DHT22;3779;49.216;8.650;2023-02-01T03:58:58;17.80;40.60
7476;DHT22;3779;49.216;8.650;2023-02-01T04:01:51;17.80;38.20
7476;DHT22;3779;49.216;8.650;2023-02-01T04:04:46;17.80;40.40
7476;DHT22;3779;49.216;8.650;2023-02-01T04:07:41;17.30;40.70
7476;DHT22;3779;49.216;8.650;2023-02-01T04:10:30;17.20;40.40
7476;DHT22;3779;49.216;8.650;2023-02-01T04:13:16;17.80;39.40
7476;DHT22;3779;49.216;8.650;2023-02-01T04:16:03;17.80;38.60
7476;DHT22;3779;49.216;8.650;2023-02-01T04:18:49;17.80;38.90
7476;DHT22;3779;49.216;8.650;2023-02-01T04:21:37;17.80;39.10
7476;DHT22;3779;49.216;8.650;2023-02-01T04:24:23;17.90;40.70
7476;DHT22;3779;49.216;8.650;2023-02-01T04:27:10;17.80;38.90
7476;DHT22;3779;49.216;8.650;2023-02-01T04:29:56;17.80;39.10
7476;DHT22;3779;49.216;8.650;2023-02-01T04:32:43;17.70;39.10
7476;DHT22;3779;49.216;8.650;2023-02-01T04:35:29;17.80;38.40
7476;DHT22;3779;49.216;8.650;2023-02-01T04:38:21;17.70;38.50
7476;DHT22;3779;49.216;8.650;2023-02-01T04:41:10;17.80;40.50
7476;DHT22;3779;49.216;8.650;2023-02-01T04:44:14;17.70;41.40
7476;DHT22;3779;49.216;8.650;2023-02-01T04:47:03;17.80;40.50
7476;DHT22;3779;49.216;8.650;2023-02-01T04:49:49;17.70;38.10
7476;DHT22;3779;49.216;8.650;2023-02-01T04:52:38;17.60;38.10
7476;DHT22;3779;49.216;8.650;2023-02-01T04:55:29;17.70;39.20
7476;DHT22;3779;49.216;8.650;2023-02-01T04:58:19;17.70;40.60
7476;DHT22;3779;49.216;8.650;2023-02-01T05:01:07;17.70;38.70
7476;DHT22;3779;49.216;8.650;2023-02-01T05:04:00;17.70;39.80
7476;DHT22;3779;49.216;8.650;2023-02-01T05:06:48;17.70;40.60
7476;DHT22;3779;49.216;8.650;2023-02-01T05:09:35;17.70;38.20
7476;DHT22;3779;49.216;8.650;2023-02-01T05:12:21;17.80;39.00
7476;DHT22;3779;49.216;8.650;2023-02-01T05:15:31;17.80;40.70
7476;DHT22;3779;49.216;8.650;2023-02-01T05:18:19;18.30;38.90
7476;DHT22;3779;49.216;8.650;2023-02-01T05:21:10;17.80;40.50
7476;DHT22;3779;49.216;8.650;2023-02-01T05:23:56;17.80;39.50
7476;DHT22;3779;49.216;8.650;2023-02-01T05:27:05;17.80;39.10
7476;DHT22;3779;49.216;8.650;2023-02-01T05:29:51;17.80;39.50
7476;DHT22;3779;49.216;8.650;2023-02-01T05:32:40;17.70;39.40
7476;DHT22;3779;49.216;8.650;2023-02-01T05:35:38;17.80;38.60
7476;DHT22;3779;49.216;8.650;2023-02-01T05:38:35;17.20;39.20
7476;DHT22;3779;49.216;8.650;2023-02-01T05:42:28;17.90;40.90
7476;DHT22;3779;49.216;8.650;2023-02-01T05:46:15;18.20;41.00
7476;DHT22;3779;49.216;8.650;2023-02-01T05:57:58;17.70;41.10
7476;DHT22;3779;49.216;8.650;2023-02-01T06:35:02;17.60;41.90
7476;DHT22;3779;49.216;8.650;2023-02-01T06:37:54;17.60;40.10
7476;DHT22;3779;49.216;8.650;2023-02-01T06:41:19;18.00;41.00
7476;DHT22;3779;49.216;8.650;2023-02-01T06:44:43;17.70;42.90
7476;DHT22;3779;49.216;8.650;2023-02-01T06:48:18;17.60;41.80
7476;DHT22;3779;49.216;8.650;2023-02-01T07:11:40;17.50;42.10
7476;DHT22;3779;49.216;8.650;2023-02-01T07:17:27;17.50;42.20
7476;DHT22;3779;49.216;8.650;2023-02-01T07:20:04;17.50;41.90
7476;DHT22;3779;49.216;8.650;2023-02-01T07:22:56;17.60;41.90
7476;DHT22;3779;49.216;8.650;2023-02-01T07:25:44;17.60;41.00
7476;DHT22;3779;49.216;8.650;2023-02-01T07:28:33;17.20;39.00
7476;DHT22;3779;49.216;8.650;2023-02-01T07:31:20;17.60;41.20
7476;DHT22;3779;49.216;8.650;2023-02-01T07:34:12;17.50;40.40
7476;DHT22;3779;49.216;8.650;2023-02-01T07:37:01;17.50;41.80
7476;DHT22;3779;49.216;8.650;2023-02-01T07:39:47;17.60;40.00
7476;DHT22;3779;49.216;8.650;2023-02-01T07:42:34;17.60;41.60
7476;DHT22;3779;49.216;8.650;2023-02-01T07:45:21;17.60;40.50
7476;DHT22;3779;49.216;8.650;2023-02-01T07:51:14;17.60;42.40
7476;DHT22;3779;49.216;8.650;2023-02-01T07:54:01;17.60;42.40
7476;DHT22;3779;49.216;8.650;2023-02-01T07:56:49;17.60;41.60
7476;DHT22;3779;49.216;8.650;2023-02-01T07:59:39;17.30;40.70
7476;DHT22;3779;49.216;8.650;2023-02-01T08:02:48;17.70;41.00
7476;DHT22;3779;49.216;8.650;2023-02-01T08:05:54;17.80;41.00
7476;DHT22;3779;49.216;8.650;2023-02-01T08:08:41;17.70;41.40
7476;DHT22;3779;49.216;8.650;2023-02-01T08:11:28;17.70;40.20
7476;DHT22;3779;49.216;8.650;2023-02-01T08:14:14;17.70;40.40
7476;DHT22;3779;49.216;8.650;2023-02-01T08:17:00;17.60;40.60
7476;DHT22;3779;49.216;8.650;2023-02-01T08:19:46;17.60;40.70
7476;DHT22;3779;49.216;8.650;2023-02-01T08:22:32;17.50;40.70
7476;DHT22;3779;49.216;8.650;2023-02-01T08:25:19;17.80;41.90
7476;DHT22;3779;49.216;8.650;2023-02-01T08:28:06;17.40;41.70
7476;DHT22;3779;49.216;8.650;2023-02-01T11:28:58;18.20;40.40
7476;DHT22;3779;49.216;8.650;2023-02-01T11:31:48;18.10;40.90
7476;DHT22;3779;49.216;8.650;2023-02-01T11:34:57;18.50;39.70
7476;DHT22;3779;49.216;8.650;2023-02-01T11:38:00;18.20;40.40
7476;DHT22;3779;49.216;8.650;2023-02-01T11:40:48;18.00;40.20
7476;DHT22;3779;49.216;8.650;2023-02-01T11:44:26;18.10;39.90
7476;DHT22;3779;49.216;8.650;2023-02-01T11:47:31;18.00;40.30
7476;DHT22;3779;49.216;8.650;2023-02-01T11:50:33;18.00;39.50
7476;DHT22;3779;49.216;8.650;2023-02-01T11:53:30;18.10;40.10
7476;DHT22;3779;49.216;8.650;2023-02-01T12:20:41;18.10;42.30
7476;DHT22;3779;49.216;8.650;2023-02-01T12:23:48;18.20;41.60
7476;DHT22;3779;49.216;8.650;2023-02-01T12:27:42;18.20;40.90
7476;DHT22;3779;49.216;8.650;2023-02-01T12:37:23;18.20;42.00
7476;DHT22;3779;49.216;8.650;2023-02-01T12:47:00;18.30;42.50
7476;DHT22;3779;49.216;8.650;2023-02-01T12:49:55;18.30;42.40
7476;DHT22;3779;49.216;8.650;2023-02-01T12:52:54;18.30;40.80
7476;DHT22;3779;49.216;8.650;2023-02-01T12:55:48;18.30;40.40
7476;DHT22;3779;49.216;8.650;2023-02-01T12:58:41;18.30;40.30
7476;DHT22;3779;49.216;8.650;2023-02-01T13:01:49;18.30;39.00
7476;DHT22;3779;49.216;8.650;2023-02-01T13:07:57;18.20;40.40
7476;DHT22;3779;49.216;8.650;2023-02-01T13:10:48;18.20;39.40
7476;DHT22;3779;49.216;8.650;2023-02-01T13:16:41;18.20;39.60
7476;DHT22;3779;49.216;8.650;2023-02-01T13:22:41;18.20;41.90
7476;DHT22;3779;49.216;8.650;2023-02-01T13:25:38;18.20;38.30
7476;DHT22;3779;49.216;8.650;2023-02-01T13:43:35;18.20;39.30
7476;DHT22;3779;49.216;8.650;2023-02-01T13:46:24;18.40;37.40
7476;DHT22;3779;49.216;8.650;2023-02-01T13:49:22;18.20;37.20
7476;DHT22;3779;49.216;8.650;2023-02-01T13:52:28;18.10;37.40
7476;DHT22;3779;49.216;8.650;2023-02-01T13:55:34;18.10;40.50
7476;DHT22;3779;49.216;8.650;2023-02-01T13:58:21;18.00;39.20
7476;DHT22;3779;49.216;8.650;2023-02-01T14:04:47;18.20;39.90
7476;DHT22;3779;49.216;8.650;2023-02-01T14:07:33;18.20;41.40
7476;DHT22;3779;49.216;8.650;2023-02-01T14:13:33;18.20;41.50
7476;DHT22;3779;49.216;8.650;2023-02-01T14:16:20;18.30;38.10
7476;DHT22;3779;49.216;8.650;2023-02-01T14:25:16;18.30;37.90
7476;DHT22;3779;49.216;8.650;2023-02-01T14:28:11;18.20;38.00
7476;DHT22;3779;49.216;8.650;2023-02-01T14:30:58;18.20;38.50
7476;DHT22;3779;49.216;8.650;2023-02-01T14:33:45;18.20;37.30
7476;DHT22;3779;49.216;8.650;2023-02-01T14:37:02;18.40;37.00
7476;DHT22;3779;49.216;8.650;2023-02-01T14:40:37;18.20;38.30
7476;DHT22;3779;49.216;8.650;2023-02-01T14:42:58;18.30;37.30
7476;DHT22;3779;49.216;8.650;2023-02-01T14:45:48;18.20;36.30
7476;DHT22;3779;49.216;8.650;2023-02-01T14:51:24;18.20;37.00
7476;DHT22;3779;49.216;8.650;2023-02-01T14:54:13;18.20;37.30
7476;DHT22;3779;49.216;8.650;2023-02-01T14:56:59;18.20;36.60
7476;DHT22;3779;49.216;8.650;2023-02-01T14:59:46;18.20;37.10
7476;DHT22;3779;49.216;8.650;2023-02-01T15:02:35;18.20;37.10
7476;DHT22;3779;49.216;8.650;2023-02-01T15:05:26;18.30;37.50
7476;DHT22;3779;49.216;8.650;2023-02-01T15:08:20;18.20;37.70
7476;DHT22;3779;49.216;8.650;2023-02-01T15:11:14;18.30;37.20
7476;DHT22;3779;49.216;8.650;2023-02-01T15:14:00;18.20;37.60
7476;DHT22;3779;49.216;8.650;2023-02-01T15:16:46;18.20;37.30
7476;DHT22;3779;49.216;8.650;2023-02-01T15:19:39;18.20;36.90
7476;DHT22;3779;49.216;8.650;2023-02-01T15:22:25;18.20;36.50
7476;DHT22;3779;49.216;8.650;2023-02-01T15:25:23;18.20;37.20
7476;DHT22;3779;49.216;8.650;2023-02-01T15:28:14;18.20;38.50
7476;DHT22;3779;49.216;8.650;2023-02-01T15:31:05;18.20;39.00
7476;DHT22;3779;49.216;8.650;2023-02-01T15:33:56;18.20;37.30
7476;DHT22;3779;49.216;8.650;2023-02-01T15:36:43;18.20;37.50
7476;DHT22;3779;49.216;8.650;2023-02-01T15:39:29;18.40;38.10
7476;DHT22;3779;49.216;8.650;2023-02-01T15:42:17;18.20;37.00
7476;DHT22;3779;49.216;8.650;2023-02-01T15:45:19;18.20;37.20
7476;DHT22;3779;49.216;8.650;2023-02-01T15:48:16;18.20;39.20
7476;DHT22;3779;49.216;8.650;2023-02-01T15:51:05;18.20;38.20
7476;DHT22;3779;49.216;8.650;2023-02-01T15:53:55;18.30;38.50
7476;DHT22;3779;49.216;8.650;2023-02-01T15:56:41;18.30;38.40
7476;DHT22;3779;49.216;8.650;2023-02-01T15:59:37;18.20;37.80
7476;DHT22;3779;49.216;8.650;2023-02-01T16:05:40;18.20;37.40
7476;DHT22;3779;49.216;8.650;2023-02-01T16:08:29;18.20;38.20
7476;DHT22;3779;49.216;8.650;2023-02-01T16:11:26;18.20;37.20
7476;DHT22;3779;49.216;8.650;2023-02-01T16:14:13;18.20;36.80
7476;DHT22;3779;49.216;8.650;2023-02-01T16:16:59;18.20;37.20
7476;DHT22;3779;49.216;8.650;2023-02-01T16:19:45;18.20;37.80
7476;DHT22;3779;49.216;8.650;2023-02-01T16:22:31;18.30;38.00
7476;DHT22;3779;49.216;8.650;2023-02-01T16:25:17;18.30;38.40
7476;DHT22;3779;49.216;8.650;2023-02-01T16:28:03;18.30;37.80
7476;DHT22;3779;49.216;8.650;2023-02-01T16:30:50;18.30;37.00
7476;DHT22;3779;49.216;8.650;2023-02-01T16:33:36;18.20;37.20
7476;DHT22;3779;49.216;8.650;2023-02-01T16:36:22;18.20;36.20
7476;DHT22;3779;49.216;8.650;2023-02-01T16:39:11;18.20;37.00
7476;DHT22;3779;49.216;8.650;2023-02-01T16:41:57;18.20;37.50
7476;DHT22;3779;49.216;8.650;2023-02-01T16:44:42;18.20;36.90
7476;DHT22;3779;49.216;8.650;2023-02-01T16:47:29;18.30;38.00
7476;DHT22;3779;49.216;8.650;2023-02-01T16:50:16;18.20;37.00
7476;DHT22;3779;49.216;8.650;2023-02-01T16:53:03;18.20;37.70
7476;DHT22;3779;49.216;8.650;2023-02-01T16:55:49;18.20;37.00
7476;DHT22;3779;49.216;8.650;2023-02-01T16:58:36;18.30;37.10
7476;DHT22;3779;49.216;8.650;2023-02-01T17:01:22;18.20;37.40
7476;DHT22;3779;49.216;8.650;2023-02-01T17:04:10;18.20;37.50
7476;DHT22;3779;49.216;8.650;2023-02-01T17:06:56;18.20;38.40
7476;DHT22;3779;49.216;8.650;2023-02-01T17:09:44;18.30;40.00
7476;DHT22;3779;49.216;8.650;2023-02-01T17:12:31;18.30;38.20
7476;DHT22;3779;49.216;8.650;2023-02-01T17:15:17;18.30;37.30
7476;DHT22;3779;49.216;8.650;2023-02-01T17:18:03;18.30;37.00
7476;DHT22;3779;49.216;8.650;2023-02-01T17:20:49;18.20;37.90
7476;DHT22;3779;49.216;8.650;2023-02-01T17:23:56;18.30;37.80
7476;DHT22;3779;49.216;8.650;2023-02-01T17:26:45;18.20;38.10
7476;DHT22;3779;49.216;8.650;2023-02-01T17:29:31;18.20;38.20
7476;DHT22;3779;49.216;8.650;2023-02-01T17:32:22;18.20;37.40
7476;DHT22;3779;49.216;8.650;2023-02-01T17:35:18;18.20;37.70
7476;DHT22;3779;49.216;8.650;2023-02-01T17:38:10;18.20;37.50
7476;DHT22;3779;49.216;8.650;2023-02-01T17:40:56;18.20;37.60
7476;DHT22;3779;49.216;8.650;2023-02-01T17:43:42;18.20;37.40
7476;DHT22;3779;49.216;8.650;2023-02-01T17:46:30;18.10;36.80
7476;DHT22;3779;49.216;8.650;2023-02-01T17:49:18;18.10;37.40
7476;DHT22;3779;49.216;8.650;2023-02-01T17:52:05;18.10;38.00
7476;DHT22;3779;49.216;8.650;2023-02-01T17:54:53;18.20;37.20
7476;DHT22;3779;49.216;8.650;2023-02-01T17:57:39;18.20;37.40
7476;DHT22;3779;49.216;8.650;2023-02-01T18:00:25;18.20;37.20
7476;DHT22;3779;49.216;8.650;2023-02-01T18:03:27;18.20;37.50
7476;DHT22;3779;49.216;8.650;2023-02-01T18:06:15;18.20;38.30
7476;DHT22;3779;49.216;8.650;2023-02-01T18:09:01;18.20;37.70
7476;DHT22;3779;49.216;8.650;2023-02-01T18:11:49;18.20;37.00
7476;DHT22;3779;49.216;8.650;2023-02-01T18:14:35;18.20;37.90
7476;DHT22;3779;49.216;8.650;2023-02-01T18:17:22;18.20;37.90
7476;DHT22;3779;49.216;8.650;2023-02-01T18:20:21;18.30;37.50
7476;DHT22;3779;49.216;8.650;2023-02-01T18:23:21;18.20;40.40
7476;DHT22;3779;49.216;8.650;2023-02-01T18:26:13;18.20;38.40
7476;DHT22;3779;49.216;8.650;2023-02-01T18:28:59;18.30;38.50
7476;DHT22;3779;49.216;8.650;2023-02-01T18:31:47;18.30;37.70
7476;DHT22;3779;49.216;8.650;2023-02-01T18:34:35;18.30;39.20
7476;DHT22;3779;49.216;8.650;2023-02-01T18:37:22;18.40;39.10
7476;DHT22;3779;49.216;8.650;2023-02-01T18:40:13;18.30;38.20
7476;DHT22;3779;49.216;8.650;2023-02-01T18:43:00;18.30;37.50
7476;DHT22;3779;49.216;8.650;2023-02-01T18:45:47;18.30;39.20
7476;DHT22;3779;49.216;8.650;2023-02-01T18:48:33;18.30;36.80
7476;DHT22;3779;49.216;8.650;2023-02-01T18:51:19;18.20;36.60
7476;DHT22;3779;49.216;8.650;2023-02-01T18:54:06;18.20;38.60
7476;DHT22;3779;49.216;8.650;2023-02-01T18:56:53;18.20;37.50
7476;DHT22;3779;49.216;8.650;2023-02-01T18:59:39;18.20;37.30
7476;DHT22;3779;49.216;8.650;2023-02-01T19:02:25;18.20;37.10
7476;DHT22;3779;49.216;8.650;2023-02-01T19:05:13;18.20;37.20
7476;DHT22;3779;49.216;8.650;2023-02-01T19:07:59;18.20;37.40
7476;DHT22;3779;49.216;8.650;2023-02-01T19:10:45;18.20;38.70
7476;DHT22;3779;49.216;8.650;2023-02-01T19:13:31;18.20;38.60
7476;DHT22;3779;49.216;8.650;2023-02-01T19:16:17;18.20;37.60
7476;DHT22;3779;49.216;8.650;2023-02-01T19:19:04;18.20;37.30
7476;DHT22;3779;49.216;8.650;2023-02-01T19:21:50;18.20;38.20
7476;DHT22;3779;49.216;8.650;2023-02-01T19:24:38;18.20;37.30
7476;DHT22;3779;49.216;8.650;2023-02-01T19:27:24;18.40;37.70
7476;DHT22;3779;49.216;8.650;2023-02-01T19:30:11;18.20;37.90
7476;DHT22;3779;49.216;8.650;2023-02-01T19:32:57;18.20;38.30
7476;DHT22;3779;49.216;8.650;2023-02-01T19:35:43;18.20;38.30
7476;DHT22;3779;49.216;8.650;2023-02-01T19:38:28;18.10;36.40
7476;DHT22;3779;49.216;8.650;2023-02-01T19:41:14;18.00;38.30
7476;DHT22;3779;49.216;8.650;2023-02-01T19:44:00;18.00;38.00
7476;DHT22;3779;49.216;8.650;2023-02-01T19:46:48;18.10;37.70
7476;DHT22;3779;49.216;8.650;2023-02-01T19:49:35;18.10;37.80
7476;DHT22;3779;49.216;8.650;2023-02-01T19:52:21;18.10;37.70
7476;DHT22;3779;49.216;8.650;2023-02-01T19:55:07;18.20;38.30
7476;DHT22;3779;49.216;8.650;2023-02-01T19:57:53;18.20;37.30
7476;DHT22;3779;49.216;8.650;2023-02-01T20:00:39;18.20;37.80
7476;DHT22;3779;49.216;8.650;2023-02-01T20:03:25;18.20;38.10
7476;DHT22;3779;49.216;8.650;2023-02-01T20:06:11;18.20;37.70
7476;DHT22;3779;49.216;8.650;2023-02-01T20:08:58;18.20;36.80
7476;DHT22;3779;49.216;8.650;2023-02-01T20:11:44;18.20;37.20
7476;DHT22;3779;49.216;8.650;2023-02-01T20:14:30;18.20;36.00
7476;DHT22;3779;49.216;8.650;2023-02-01T20:17:16;18.20;35.90
7476;DHT22;3779;49.216;8.650;2023-02-01T20:20:04;18.00;36.10
7476;DHT22;3779;49.216;8.650;2023-02-01T20:22:51;18.00;36.30
7476;DHT22;3779;49.216;8.650;2023-02-01T20:25:37;17.90;36.60
7476;DHT22;3779;49.216;8.650;2023-02-01T20:28:23;17.90;36.40
7476;DHT22;3779;49.216;8.650;2023-02-01T20:31:09;17.90;36.70
7476;DHT22;3779;49.216;8.650;2023-02-01T20:33:56;17.90;36.50
7476;DHT22;3779;49.216;8.650;2023-02-01T20:36:43;17.90;37.30
7476;DHT22;3779;49.216;8.650;2023-02-01T20:39:30;17.90;36.30
7476;DHT22;3779;49.216;8.650;2023-02-01T20:42:16;17.90;39.00
7476;DHT22;3779;49.216;8.650;2023-02-01T20:45:03;17.90;38.30
7476;DHT22;3779;49.216;8.650;2023-02-01T20:47:49;17.90;38.60
7476;DHT22;3779;49.216;8.650;2023-02-01T20:50:37;18.00;38.60
7476;DHT22;3779;49.216;8.650;2023-02-01T20:53:24;18.00;38.50
7476;DHT22;3779;49.216;8.650;2023-02-01T20:56:12;18.10;37.70
7476;DHT22;3779;49.216;8.650;2023-02-01T20:58:58;18.00;36.80
7476;DHT22;3779;49.216;8.650;2023-02-01T21:01:47;18.00;38.00
7476;DHT22;3779;49.216;8.650;2023-02-01T21:04:37;18.00;38.40
7476;DHT22;3779;49.216;8.650;2023-02-01T21:07:23;18.00;37.90
7476;DHT22;3779;49.216;8.650;2023-02-01T21:10:10;18.00;36.60
7476;DHT22;3779;49.216;8.650;2023-02-01T21:12:56;18.00;39.00
7476;DHT22;3779;49.216;8.650;2023-02-01T21:15:42;18.10;39.70
7476;DHT22;3779;49.216;8.650;2023-02-01T21:18:28;18.10;38.00
7476;DHT22;3779;49.216;8.650;2023-02-01T21:21:15;18.20;38.60
7476;DHT22;3779;49.216;8.650;2023-02-01T21:24:01;18.20;38.30
7476;DHT22;3779;49.216;8.650;2023-02-01T21:26:47;18.20;38.60
7476;DHT22;3779;49.216;8.650;2023-02-01T21:29:33;18.20;37.90
7476;DHT22;3779;49.216;8.650;2023-02-01T21:32:19;18.20;37.60
7476;DHT22;3779;49.216;8.650;2023-02-01T21:35:05;18.20;37.40
7476;DHT22;3779;49.216;8.650;2023-02-01T21:37:51;18.20;37.60
7476;DHT22;3779;49.216;8.650;2023-02-01T21:40:37;18.20;37.90
7476;DHT22;3779;49.216;8.650;2023-02-01T21:43:23;18.20;37.80
7476;DHT22;3779;49.216;8.650;2023-02-01T21:46:09;18.20;38.00
7476;DHT22;3779;49.216;8.650;2023-02-01T21:48:55;18.20;38.00
7476;DHT22;3779;49.216;8.650;2023-02-01T21:51:41;18.20;38.10
7476;DHT22;3779;49.216;8.650;2023-02-01T21:54:27;18.20;38.50
7476;DHT22;3779;49.216;8.650;2023-02-01T21:57:13;18.20;38.90
7476;DHT22;3779;49.216;8.650;2023-02-01T21:59:59;18.30;39.90
7476;DHT22;3779;49.216;8.650;2023-02-01T22:02:45;18.30;38.60
7476;DHT22;3779;49.216;8.650;2023-02-01T22:05:31;18.30;38.80
7476;DHT22;3779;49.216;8.650;2023-02-01T22:08:17;18.30;38.20
7476;DHT22;3779;49.216;8.650;2023-02-01T22:11:04;18.30;38.00
7476;DHT22;3779;49.216;8.650;2023-02-01T22:13:50;18.30;38.40
7476;DHT22;3779;49.216;8.650;2023-02-01T22:16:36;18.30;38.50
7476;DHT22;3779;49.216;8.650;2023-02-01T22:19:21;18.20;37.80
7476;DHT22;3779;49.216;8.650;2023-02-01T22:22:07;18.20;38.90
7476;DHT22;3779;49.216;8.650;2023-02-01T22:24:56;18.20;38.10
7476;DHT22;3779;49.216;8.650;2023-02-01T22:27:41;18.20;38.40
7476;DHT22;3779;49.216;8.650;2023-02-01T22:30:27;18.20;39.70
7476;DHT22;3779;49.216;8.650;2023-02-01T22:33:13;18.20;38.40
7476;DHT22;3779;49.216;8.650;2023-02-01T22:36:00;18.30;38.60
7476;DHT22;3779;49.216;8.650;2023-02-01T22:38:46;18.20;39.00
7476;DHT22;3779;49.216;8.650;2023-02-01T22:41:33;18.20;38.40
7476;DHT22;3779;49.216;8.650;2023-02-01T22:44:19;18.20;38.60
7476;DHT22;3779;49.216;8.650;2023-02-01T22:47:05;18.20;38.70
7476;DHT22;3779;49.216;8.650;2023-02-01T22:49:51;18.20;38.90
7476;DHT22;3779;49.216;8.650;2023-02-01T22:52:36;18.20;38.70
7476;DHT22;3779;49.216;8.650;2023-02-01T22:55:22;18.20;38.60
7476;DHT22;3779;49.216;8.650;2023-02-01T22:58:08;18.20;38.70
7476;DHT22;3779;49.216;8.650;2023-02-01T23:00:54;18.20;38.70
7476;DHT22;3779;49.216;8.650;2023-02-01T23:03:40;18.20;38.90
7476;DHT22;3779;49.216;8.650;2023-02-01T23:06:26;18.20;38.60
7476;DHT22;3779;49.216;8.650;2023-02-01T23:09:15;18.20;39.00
7476;DHT22;3779;49.216;8.650;2023-02-01T23:12:02;18.20;38.90
7476;DHT22;3779;49.216;8.650;2023-02-01T23:14:48;18.20;38.60
7476;DHT22;3779;49.216;8.650;2023-02-01T23:17:52;18.20;40.00
7476;DHT22;3779;49.216;8.650;2023-02-01T23:20:39;18.20;39.20
7476;DHT22;3779;49.216;8.650;2023-02-01T23:23:25;18.20;39.00
7476;DHT22;3779;49.216;8.650;2023-02-01T23:26:11;18.30;39.50
7476;DHT22;3779;49.216;8.650;2023-02-01T23:28:58;18.20;38.70
7476;DHT22;3779;49.216;8.650;2023-02-01T23:31:44;18.20;40.10
7476;DHT22;3779;49.216;8.650;2023-02-01T23:34:30;18.20;39.10
7476;DHT22;3779;49.216;8.650;2023-02-01T23:37:16;18.20;39.30
7476;DHT22;3779;49.216;8.650;2023-02-01T23:40:02;18.20;40.70
7476;DHT22;3779;49.216;8.650;2023-02-01T23:42:48;18.20;39.20
7476;DHT22;3779;49.216;8.650;2023-02-01T23:45:57;18.20;40.00
7476;DHT22;3779;49.216;8.650;2023-02-01T23:48:45;18.20;39.20
7476;DHT22;3779;49.216;8.650;2023-02-01T23:51:31;18.20;39.60
7476;DHT22;3779;49.216;8.650;2023-02-01T23:54:20;18.20;39.30
7476;DHT22;3779;49.216;8.650;2023-02-01T23:57:07;18.30;40.10
7476;DHT22;3779;49.216;8.650;2023-02-01T23:59:53;18.30;39.70
